Date,TemperatureHighF,TemperatureAvgF,TemperatureLowF,DewpointHighF,DewpointAvgF,DewpointLowF,HumidityHigh,HumidityAvg,HumidityLow,PressureMaxIn,PressureMinIn,WindSpeedMaxMPH,WindSpeedAvgMPH,GustSpeedMaxMPH,PrecipitationSumIn
2013-5-1,68.0,51.1,35.0,-99.9,-99.9,-99.9,0,0,100,30.56,30.48,9,-17,13,0.00
2013-5-2,78.0,60.4,47.0,-99.9,-99.9,-99.9,0,0,100,30.51,30.29,14,-3,19,0.00
2013-5-3,76.0,63.7,50.0,-99.9,-99.9,-99.9,0,0,100,30.35,30.18,14,-8,23,0.00
2013-5-4,82.0,68.0,55.0,-99.9,-99.9,-99.9,0,0,100,30.18,29.93,16,-2,24,0.00
2013-5-5,86.0,68.7,54.0,-99.9,-99.9,-99.9,0,0,100,29.96,29.71,7,-39,12,0.00
2013-5-6,75.0,61.2,52.0,-99.9,-99.9,-99.9,0,0,100,29.90,29.79,11,-2,14,0.00
2013-5-7,66.0,57.3,53.0,-99.9,-99.9,-99.9,0,0,100,30.06,29.90,13,6,15,0.00
2013-5-8,67.0,56.8,53.0,-99.9,-99.9,-99.9,0,0,100,30.18,30.05,10,-2,13,0.00
2013-5-9,74.0,58.9,51.0,-99.9,-99.9,-99.9,0,0,100,30.22,30.10,9,5,12,0.00
2013-5-10,74.0,58.8,50.0,-99.9,-99.9,-99.9,0,0,100,30.22,30.12,10,5,13,0.00
2013-5-11,77.0,62.1,53.0,-99.9,-99.9,-99.9,0,0,100,30.24,30.03,11,-2,14,0.00
2013-5-12,69.0,62.5,58.0,-99.9,-99.9,-99.9,0,0,100,30.12,30.06,10,-53,13,0.00
2013-5-13,65.0,57.7,49.0,-99.9,-99.9,-99.9,0,0,100,30.24,30.01,23,-32,30,0.00
2013-5-14,65.0,54.2,45.0,-99.9,-99.9,-99.9,0,0,100,30.25,30.12,10,4,13,0.00
2013-5-15,57.0,53.2,48.0,-99.9,-99.9,-99.9,0,0,100,30.15,30.03,11,-3,15,0.00
2013-5-16,65.0,53.7,53.0,-99.9,-99.9,-99.9,0,0,100,30.03,29.91,16,-10,19,0.00
2013-5-17,60.0,54.0,49.0,-99.9,-99.9,-99.9,0,0,100,30.11,29.99,12,-37,16,0.00
2013-5-18,58.0,54.2,51.0,-99.9,-99.9,-99.9,0,0,100,30.29,30.11,11,-17,15,0.00
2013-5-19,62.0,55.9,51.0,-99.9,-99.9,-99.9,0,0,100,30.42,30.29,12,7,16,0.00
2013-5-20,68.0,55.8,49.0,-99.9,-99.9,-99.9,0,0,100,30.39,29.95,11,5,15,0.00
2013-5-21,53.0,49.3,46.0,-99.9,-99.9,-99.9,0,0,100,29.96,29.85,15,-29,25,0.00
2013-5-22,49.0,46.4,44.0,-99.9,-99.9,-99.9,0,0,100,29.97,29.92,14,8,18,0.00
2013-5-23,52.0,48.9,46.0,-99.9,-99.9,-99.9,0,0,100,30.01,29.95,14,8,20,0.00
2013-5-24,55.0,51.6,49.0,-99.9,-99.9,-99.9,0,0,100,30.10,29.97,14,6,21,0.00
2013-5-25,62.0,53.2,47.0,-99.9,-99.9,-99.9,0,0,100,30.09,29.96,12,5,16,0.00
2013-5-26,62.0,56.0,52.0,-99.9,-99.9,-99.9,0,0,100,30.02,29.96,13,-58,16,0.00
2013-5-27,62.0,55.7,53.0,-99.9,-99.9,-99.9,0,0,100,29.99,29.72,19,-25,27,0.00
2013-5-28,61.0,55.5,53.0,-99.9,-99.9,-99.9,0,0,100,29.93,29.78,14,-1,20,0.00
2013-5-29,58.0,53.9,51.0,-99.9,-99.9,-99.9,0,0,100,30.06,29.65,17,-23,21,0.00
2013-5-30,58.0,53.5,50.0,-99.9,-99.9,-99.9,0,0,100,30.27,30.06,13,-2,16,0.00
2013-5-31,65.0,56.9,49.0,-99.9,-99.9,-99.9,0,0,100,30.35,30.25,9,-3,11,0.00